KJAC/JAC METAR and TAF weather

Enter ICAO airport designator
Station Type Date Time Source
KJAC METAR 2019/07/20 19:56 UTC NOAA

KJAC 201956Z 22011G21KT 10SM CLR 26/03 A3013 RMK AO2 SLP138 T02560033


Station Type Date Time Source
KJAC Decoded METAR 2019/07/20 19:56 UTC NOAA

Jackson, Jackson Hole Airport, WY, United States (KJAC) 43-36N 110-44W
Jul 20, 2019 - 03:56 PM EDT / 2019.07.20 1956 UTC
Wind: from the SW (220 degrees) at 13 MPH (11 KT) gusting to 24 MPH (21 KT):0
Visibility: 10 mile(s):0
Sky conditions: clear
Temperature: 78.1 F (25.6 C)
Dew Point: 37.9 F (3.3 C)
Relative Humidity: 23%
Pressure (altimeter): 30.13 in. Hg (1020 hPa)
ob: KJAC 201956Z 22011G21KT 10SM CLR 26/03 A3013 RMK AO2 SLP138 T02560033
cycle: 20

Station Type Date Time Source
KJAC TAF 2019/07/20 19:18 UTC NOAA

TAF
AMD KJAC 201917Z 2019/2118 23012G18KT P6SM SKC
FM210300 VRB04KT P6SM SKC
AMD LTD TO CLD VIS AND WIND

Example: see airport list